Black Diamond, Washington
Current Conditions -  °F | °C
As of 7:53 AM on Tuesday 21 Oct 2014 (Local Time) from KRNT Reporting Station
Broken Clouds Broken Clouds  
Wind Chill: 55°   Ceiling: 9000
Heat Index: 55°   Visibility: 9mi
Dew Point: 52°   Wind: 6mph
Humidity: 89%   Direction: 140°SE
Pressure: 29.87"   Gusts: NA
Location:  47.31°N, 122°W
Report Text: KRNT 211453Z 14005KT 9SM FEW035 SCT047 BKN090 13/11 A2987 RMK AO2 RAE33 SLP121 P0000 60001 T01280111 51013
Loading
Personal Weather Stations






























Interactive Weather Map
Tropical Storm Tracking
New forecast layout! Learn more

10-Day Weather Forecast

Advertisements
Track Severe Weather on mobile